LATI

Tirana International Mother Teresa Airport

Tirana, Albania
TAF LATI 261100Z 2612/2712 33008KT CAVOK TX28/2712Z TN11/2704Z BECMG 2616/2618 VRB03KT
Issued Valid From Valid To
Apr-26 @ 11:00 UTC
(2 hours ago)
Apr-26 @ 12:00 UTC
(an hour ago)
Apr-27 @ 12:00 UTC
(in 23 hours)
Apr-26 @ 12:00 to Apr-26 @ 16:00
TAF LATI 261100Z 2612/2712 33008KT CAVOK TX28/2712Z TN11/2704Z
Wind Visibility Clouds
330° at 8 knots 10,000+ meters
  • No significant clouds
Becoming Apr-26 @ 16:00 to Apr-27 @ 12:00
BECMG 2616/2618 VRB03KT
Wind Visibility Clouds
Variable at 3 knots 10,000+ meters
  • No significant clouds
TAF LATI 261100Z 2612/2712 33008KT CAVOK TX28/2712Z TN11/2704Z BECMG 2616/2618 VRB03KT
Issued Apr-26 @ 11:00 UTC
(2 hours ago)
Valid From Apr-26 @ 12:00 UTC
(an hour ago)
Valid To Apr-27 @ 12:00 UTC
(in 23 hours)
Apr-26 @ 12:00 - Apr-26 @ 16:00
Wind Visibility
330° at 8 knots 10,000+ meters
Clouds
  • No significant clouds
Becoming Apr-26 @ 16:00 - Apr-27 @ 12:00
Wind Visibility
Variable at 3 knots 10,000+ meters
Clouds
  • No significant clouds